createdAt,value
2022-12-29T00:01:58.463Z,6.00
2022-12-29T00:07:06.568Z,12.00
2022-12-29T00:12:11.612Z,6.00
2022-12-29T00:17:16.672Z,4.00
2022-12-29T00:22:41.833Z,7.33
2022-12-29T00:28:07.263Z,5.50
2022-12-29T00:33:36.521Z,7.00
2022-12-29T00:39:06.026Z,6.00
2022-12-29T00:44:12.273Z,4.00
2022-12-29T00:49:32.942Z,7.33
2022-12-29T00:54:40.668Z,12.00
2022-12-29T00:59:45.894Z,8.00
2022-12-29T01:04:53.465Z,10.00
2022-12-29T01:10:13.629Z,4.00
2022-12-29T01:15:18.757Z,8.50
2022-12-29T01:20:24.007Z,4.00
2022-12-29T01:25:28.952Z,10.00
2022-12-29T01:35:38.949Z,14.00
2022-12-29T01:40:51.317Z,16.33
2022-12-29T01:45:57.782Z,26.00
2022-12-29T01:51:03.156Z,30.00
2022-12-29T01:56:14.160Z,31.00
2022-12-29T02:01:22.892Z,11.00
2022-12-29T02:06:35.547Z,17.00
2022-12-29T02:11:42.731Z,9.33
2022-12-29T02:17:18.144Z,41.67
2022-12-29T02:22:26.161Z,41.00
2022-12-29T02:28:12.723Z,28.75
2022-12-29T02:33:30.071Z,75.67
2022-12-29T02:38:34.692Z,20.50
2022-12-29T02:43:52.231Z,13.50
2022-12-29T02:49:08.386Z,9.50
2022-12-29T02:54:32.570Z,14.50
2022-12-29T02:59:37.347Z,36.75
2022-12-29T03:05:10.479Z,22.67
2022-12-29T03:10:44.720Z,37.00
2022-12-29T03:16:09.586Z,25.50
2022-12-29T03:21:21.091Z,16.00
2022-12-29T03:26:26.084Z,17.00
2022-12-29T03:31:31.441Z,30.00
2022-12-29T03:36:50.407Z,63.75
2022-12-29T03:42:05.978Z,36.50
2022-12-29T03:47:12.940Z,30.00
2022-12-29T03:52:18.222Z,10.00
2022-12-29T03:57:24.177Z,38.75
2022-12-29T04:02:37.192Z,37.33
2022-12-29T04:07:43.050Z,12.00
2022-12-29T04:12:48.787Z,23.00
2022-12-29T04:17:54.688Z,24.67
2022-12-29T04:23:07.493Z,21.75
2022-12-29T04:28:13.550Z,14.00
2022-12-29T04:33:37.075Z,11.50
2022-12-29T04:38:42.106Z,12.00
2022-12-29T04:43:47.517Z,17.00
2022-12-29T04:49:12.464Z,11.00
2022-12-29T04:54:27.215Z,9.50
2022-12-29T04:59:44.841Z,4.00
2022-12-29T05:04:50.046Z,7.00
2022-12-29T05:09:55.719Z,12.00
2022-12-29T05:15:01.056Z,18.00
2022-12-29T05:20:07.613Z,23.00
2022-12-29T05:25:13.629Z,14.00
2022-12-29T05:30:45.391Z,14.75
2022-12-29T05:35:50.426Z,13.75
2022-12-29T05:40:56.506Z,12.00
2022-12-29T05:46:22.524Z,0.00
2022-12-29T05:51:47.951Z,0.00
2022-12-29T06:01:59.555Z,7.00
2022-12-29T06:07:04.772Z,8.00
2022-12-29T06:12:28.024Z,8.00
2022-12-29T06:17:33.816Z,10.50
2022-12-29T06:22:39.824Z,10.00
2022-12-29T06:27:45.773Z,2.00
2022-12-29T06:32:50.939Z,2.00
2022-12-29T06:37:58.544Z,13.75
2022-12-29T06:43:03.714Z,11.50
2022-12-29T06:48:18.072Z,4.00
2022-12-29T06:53:27.043Z,4.67
2022-12-29T06:58:32.441Z,17.00
2022-12-29T07:03:38.612Z,4.00
2022-12-29T07:08:44.069Z,0.00
2022-12-29T07:13:50.207Z,0.00
2022-12-29T07:18:55.579Z,0.00
2022-12-29T07:24:01.898Z,0.00
2022-12-29T07:29:07.944Z,0.00
2022-12-29T07:39:17.921Z,2.67
2022-12-29T07:44:24.177Z,4.50
2022-12-29T07:49:50.427Z,2.50
2022-12-29T07:54:55.544Z,18.50
2022-12-29T08:00:01.269Z,6.00
2022-12-29T08:10:21.285Z,6.00
2022-12-29T08:20:37.769Z,9.00
2022-12-29T08:30:48.245Z,6.00
2022-12-29T08:35:53.680Z,6.00
2022-12-29T08:41:00.611Z,5.00
2022-12-29T08:46:06.357Z,6.00
2022-12-29T08:51:11.742Z,2.50
2022-12-29T08:56:16.861Z,9.00
2022-12-29T09:01:27.559Z,9.00
2022-12-29T09:06:38.077Z,6.00
2022-12-29T09:11:45.755Z,2.00
2022-12-29T09:17:09.544Z,10.50
2022-12-29T09:22:14.816Z,10.00
2022-12-29T09:27:19.882Z,8.00
2022-12-29T09:32:26.498Z,11.00
2022-12-29T09:37:35.288Z,13.50
2022-12-29T09:48:37.439Z,4.00
2022-12-29T09:54:07.135Z,5.00
2022-12-29T09:59:22.954Z,7.50
2022-12-29T10:04:31.624Z,15.00
2022-12-29T10:09:41.232Z,20.50
2022-12-29T10:15:08.855Z,90.33
2022-12-29T10:20:32.326Z,58.50
2022-12-29T10:25:41.744Z,51.00
2022-12-29T10:30:49.247Z,133.33
2022-12-29T10:35:54.651Z,51.50
2022-12-29T10:41:13.151Z,50.00
2022-12-29T10:46:32.037Z,156.67
2022-12-29T10:51:44.132Z,48.00
2022-12-29T10:57:06.063Z,45.33
2022-12-29T11:02:13.659Z,47.00
2022-12-29T11:07:27.322Z,78.33
2022-12-29T11:12:35.017Z,58.00
2022-12-29T11:17:53.570Z,50.00
2022-12-29T11:22:58.926Z,82.67
2022-12-29T11:28:18.024Z,77.75
2022-12-29T11:33:22.788Z,44.75
2022-12-29T11:38:45.973Z,25.50
2022-12-29T11:43:51.271Z,26.25
2022-12-29T11:49:00.698Z,63.25
2022-12-29T11:54:07.603Z,57.33
2022-12-29T11:59:32.342Z,38.67
2022-12-29T12:04:40.786Z,40.00
2022-12-29T12:09:53.397Z,41.00
2022-12-29T12:15:03.772Z,24.00
2022-12-29T12:20:48.351Z,14.00
2022-12-29T12:26:12.060Z,14.50
2022-12-29T12:31:34.358Z,15.50
2022-12-29T12:37:03.990Z,24.50
2022-12-29T12:42:15.455Z,40.00
2022-12-29T12:53:08.689Z,47.67
2022-12-29T12:58:40.298Z,50.00
2022-12-29T13:04:03.877Z,39.67
2022-12-29T13:09:30.494Z,42.00
2022-12-29T13:15:19.426Z,42.00
2022-12-29T13:20:42.229Z,41.25
2022-12-29T13:26:19.489Z,39.00
2022-12-29T13:31:36.452Z,32.67
2022-12-29T13:36:50.979Z,40.67
2022-12-29T13:42:01.702Z,37.25
2022-12-29T13:47:30.416Z,44.50
2022-12-29T13:52:46.830Z,42.00
2022-12-29T13:58:03.663Z,50.00
2022-12-29T14:03:35.508Z,118.50
2022-12-29T14:08:41.603Z,96.25
2022-12-29T14:13:50.621Z,47.00
2022-12-29T14:18:59.486Z,47.50
2022-12-29T14:24:40.109Z,56.00
2022-12-29T14:29:53.110Z,100.50
2022-12-29T14:35:02.504Z,50.00
2022-12-29T14:40:28.685Z,39.25
2022-12-29T14:45:39.928Z,39.50
2022-12-29T14:50:46.842Z,18.00
2022-12-29T14:55:59.955Z,17.00
2022-12-29T15:01:06.022Z,23.67
2022-12-29T15:06:14.302Z,56.00
2022-12-29T15:11:25.850Z,84.75
2022-12-29T15:16:39.244Z,109.75
2022-12-29T15:21:47.425Z,104.00
2022-12-29T15:26:55.718Z,50.00
2022-12-29T15:37:11.243Z,125.50
2022-12-29T15:42:27.558Z,56.50
2022-12-29T15:47:34.809Z,25.00
2022-12-29T15:52:44.270Z,20.50
2022-12-29T15:57:49.180Z,12.00
2022-12-29T16:02:56.215Z,7.00
2022-12-29T16:08:03.892Z,46.50
2022-12-29T16:13:42.223Z,113.67
2022-12-29T16:18:53.423Z,61.50
2022-12-29T16:24:07.326Z,29.67
2022-12-29T16:29:16.418Z,17.67
2022-12-29T16:34:49.348Z,98.00
2022-12-29T16:39:56.370Z,40.33
2022-12-29T16:45:12.482Z,113.67
2022-12-29T16:50:28.605Z,48.00
2022-12-29T16:55:34.583Z,50.00
2022-12-29T17:00:39.766Z,43.00
2022-12-29T17:05:44.794Z,13.33
2022-12-29T17:11:09.726Z,14.67
2022-12-29T17:16:14.933Z,10.50
2022-12-29T17:21:19.494Z,8.00
2022-12-29T17:26:24.092Z,13.00
2022-12-29T17:31:28.788Z,8.67
2022-12-29T17:36:33.399Z,8.00
2022-12-29T17:41:39.854Z,4.50
2022-12-29T17:46:44.469Z,7.00
2022-12-29T17:51:49.557Z,6.00
2022-12-29T17:56:54.685Z,6.00
2022-12-29T18:02:00.279Z,4.50
2022-12-29T18:07:12.347Z,10.67
2022-12-29T18:12:32.047Z,11.33
2022-12-29T18:17:36.577Z,10.00
2022-12-29T18:22:41.173Z,10.67
2022-12-29T18:27:45.748Z,10.00
2022-12-29T18:32:50.274Z,14.00
2022-12-29T18:37:54.889Z,15.00
2022-12-29T18:43:01.265Z,11.33
2022-12-29T18:48:06.027Z,17.00
2022-12-29T18:53:21.894Z,17.00
2022-12-29T18:58:33.773Z,15.67
2022-12-29T19:03:38.924Z,12.00
2022-12-29T19:08:43.889Z,9.33
2022-12-29T19:13:48.437Z,9.33
2022-12-29T19:19:08.820Z,11.00
2022-12-29T19:24:14.293Z,8.50
2022-12-29T19:29:19.149Z,12.67
2022-12-29T19:34:23.686Z,10.67
2022-12-29T19:39:30.020Z,10.50
2022-12-29T19:44:34.607Z,8.00
2022-12-29T19:49:39.487Z,15.67
2022-12-29T19:54:44.954Z,4.67
2022-12-29T19:59:50.236Z,7.50
2022-12-29T20:04:55.124Z,7.00
2022-12-29T20:10:00.728Z,8.00
2022-12-29T20:15:06.974Z,3.33
2022-12-29T20:20:13.063Z,3.33
2022-12-29T20:30:42.306Z,12.00
2022-12-29T20:35:46.939Z,8.50
2022-12-29T20:40:51.883Z,15.00
2022-12-29T20:45:56.483Z,14.50
2022-12-29T20:51:01.807Z,8.50
2022-12-29T20:56:26.990Z,13.75
2022-12-29T21:01:31.795Z,21.25
2022-12-29T21:06:37.281Z,48.00
2022-12-29T21:11:41.861Z,38.00
2022-12-29T21:16:47.510Z,24.00
2022-12-29T21:21:52.740Z,46.25
2022-12-29T21:26:57.332Z,49.50
2022-12-29T21:32:06.819Z,100.67
2022-12-29T21:37:11.632Z,54.50
2022-12-29T21:42:16.322Z,44.67
2022-12-29T21:47:20.901Z,39.75
2022-12-29T21:52:25.480Z,19.50
2022-12-29T22:03:16.646Z,26.75
2022-12-29T22:08:43.237Z,12.00
2022-12-29T22:13:47.777Z,2.50
2022-12-29T22:18:53.989Z,16.33
2022-12-29T22:23:58.527Z,18.33
2022-12-29T22:29:03.062Z,18.00
2022-12-29T22:34:07.732Z,13.67
2022-12-29T22:39:12.341Z,36.00
2022-12-29T22:44:16.906Z,52.75
2022-12-29T22:49:21.497Z,38.00
2022-12-29T22:54:26.159Z,24.50
2022-12-29T22:59:30.797Z,34.67
2022-12-29T23:05:02.350Z,31.25
2022-12-29T23:10:01.506Z,43.25
2022-12-29T23:15:10.960Z,14.67
2022-12-29T23:20:25.410Z,31.75
2022-12-29T23:25:30.026Z,24.33
2022-12-29T23:30:35.878Z,33.00
2022-12-29T23:35:40.694Z,29.75
2022-12-29T23:40:45.278Z,45.00
2022-12-29T23:45:51.265Z,45.00
2022-12-29T23:56:02.792Z,22.75
